sensor_id;sensor_type;location;lat;lon;timestamp;pressure;altitude;pressure_sealevel;temperature;humidity
79230;BME280;68663;49.122;17.544;2023-11-19T00:02:20;99893.31;;;23.81;44.46
79230;BME280;68663;49.122;17.544;2023-11-19T00:04:46;99892.88;;;23.82;44.33
79230;BME280;68663;49.122;17.544;2023-11-19T00:07:12;99879.94;;;23.85;44.29
79230;BME280;68663;49.122;17.544;2023-11-19T00:09:39;99877.09;;;23.89;44.31
79230;BME280;68663;49.122;17.544;2023-11-19T00:12:05;99873.47;;;23.88;44.40
79230;BME280;68663;49.122;17.544;2023-11-19T00:14:31;99853.69;;;23.92;44.34
79230;BME280;68663;49.122;17.544;2023-11-19T00:16:56;99859.31;;;23.92;44.23
79230;BME280;68663;49.122;17.544;2023-11-19T00:19:22;99868.59;;;23.92;44.28
79230;BME280;68663;49.122;17.544;2023-11-19T00:21:47;99864.56;;;23.93;44.29
79230;BME280;68663;49.122;17.544;2023-11-19T00:24:13;99859.72;;;23.94;43.99
79230;BME280;68663;49.122;17.544;2023-11-19T00:26:41;99852.84;;;23.95;44.16
79230;BME280;68663;49.122;17.544;2023-11-19T00:29:07;99858.06;;;23.96;44.18
79230;BME280;68663;49.122;17.544;2023-11-19T00:31:32;99861.28;;;23.98;44.11
79230;BME280;68663;49.122;17.544;2023-11-19T00:33:58;99854.81;;;23.98;44.19
79230;BME280;68663;49.122;17.544;2023-11-19T00:36:23;99849.25;;;23.91;44.46
79230;BME280;68663;49.122;17.544;2023-11-19T00:38:49;99847.69;;;23.82;44.27
79230;BME280;68663;49.122;17.544;2023-11-19T00:41:15;99853.81;;;23.77;44.51
79230;BME280;68663;49.122;17.544;2023-11-19T00:43:44;99845.81;;;23.69;44.82
79230;BME280;68663;49.122;17.544;2023-11-19T00:46:09;99851.09;;;23.63;44.87
79230;BME280;68663;49.122;17.544;2023-11-19T00:48:36;99852.31;;;23.62;45.17
79230;BME280;68663;49.122;17.544;2023-11-19T00:51:02;99857.13;;;23.65;44.84
79230;BME280;68663;49.122;17.544;2023-11-19T00:53:27;99853.09;;;23.66;44.91
79230;BME280;68663;49.122;17.544;2023-11-19T00:55:53;99837.75;;;23.67;44.66
79230;BME280;68663;49.122;17.544;2023-11-19T00:58:18;99834.94;;;23.67;45.01
79230;BME280;68663;49.122;17.544;2023-11-19T01:00:43;99836.91;;;23.70;44.73
79230;BME280;68663;49.122;17.544;2023-11-19T01:03:10;99830.44;;;23.73;44.91
79230;BME280;68663;49.122;17.544;2023-11-19T01:05:36;99833.66;;;23.75;45.05
79230;BME280;68663;49.122;17.544;2023-11-19T01:08:02;99829.19;;;23.78;44.72
79230;BME280;68663;49.122;17.544;2023-11-19T01:10:30;99824.72;;;23.80;44.58
79230;BME280;68663;49.122;17.544;2023-11-19T01:12:55;99824.31;;;23.82;44.81
79230;BME280;68663;49.122;17.544;2023-11-19T01:15:21;99831.16;;;23.85;44.74
79230;BME280;68663;49.122;17.544;2023-11-19T01:17:46;99819.84;;;23.85;44.59
79230;BME280;68663;49.122;17.544;2023-11-19T01:20:12;99812.16;;;23.89;44.69
79230;BME280;68663;49.122;17.544;2023-11-19T01:22:39;99815.78;;;23.89;44.56
79230;BME280;68663;49.122;17.544;2023-11-19T01:25:05;99815.75;;;23.93;44.56
79230;BME280;68663;49.122;17.544;2023-11-19T01:27:31;99813.28;;;23.95;44.46
79230;BME280;68663;49.122;17.544;2023-11-19T01:29:56;99810.94;;;23.90;44.64
79230;BME280;68663;49.122;17.544;2023-11-19T01:32:22;99811.00;;;23.82;44.54
79230;BME280;68663;49.122;17.544;2023-11-19T01:34:49;99793.31;;;23.75;44.81
79230;BME280;68663;49.122;17.544;2023-11-19T01:37:14;99786.09;;;23.70;44.87
79230;BME280;68663;49.122;17.544;2023-11-19T01:39:40;99777.66;;;23.67;45.07
79230;BME280;68663;49.122;17.544;2023-11-19T01:42:08;99772.81;;;23.67;45.07
79230;BME280;68663;49.122;17.544;2023-11-19T01:44:34;99774.00;;;23.70;45.05
79230;BME280;68663;49.122;17.544;2023-11-19T01:46:59;99762.69;;;23.73;45.15
79230;BME280;68663;49.122;17.544;2023-11-19T01:49:25;99769.91;;;23.78;44.85
79230;BME280;68663;49.122;17.544;2023-11-19T01:51:51;99757.81;;;23.77;45.06
79230;BME280;68663;49.122;17.544;2023-11-19T01:54:16;99754.63;;;23.72;44.92
79230;BME280;68663;49.122;17.544;2023-11-19T01:56:42;99745.78;;;23.70;45.00
79230;BME280;68663;49.122;17.544;2023-11-19T01:59:09;99740.97;;;23.67;45.29
79230;BME280;68663;49.122;17.544;2023-11-19T02:01:36;99727.28;;;23.65;45.14
79230;BME280;68663;49.122;17.544;2023-11-19T02:04:05;99711.13;;;23.66;45.20
79230;BME280;68663;49.122;17.544;2023-11-19T02:06:32;99707.06;;;23.70;45.06
79230;BME280;68663;49.122;17.544;2023-11-19T02:08:58;99693.72;;;23.74;45.04
79230;BME280;68663;49.122;17.544;2023-11-19T02:11:24;99700.50;;;23.80;44.77
79230;BME280;68663;49.122;17.544;2023-11-19T02:13:54;99699.69;;;23.80;44.85
79230;BME280;68663;49.122;17.544;2023-11-19T02:16:20;99699.34;;;23.74;44.90
79230;BME280;68663;49.122;17.544;2023-11-19T02:18:45;99696.56;;;23.71;44.80
79230;BME280;68663;49.122;17.544;2023-11-19T02:21:11;99682.88;;;23.69;45.31
79230;BME280;68663;49.122;17.544;2023-11-19T02:23:36;99680.50;;;23.64;45.00
79230;BME280;68663;49.122;17.544;2023-11-19T02:26:09;99680.13;;;23.62;45.42
79230;BME280;68663;49.122;17.544;2023-11-19T02:28:39;99674.91;;;23.61;45.04
79230;BME280;68663;49.122;17.544;2023-11-19T02:31:05;99673.34;;;23.56;45.17
79230;BME280;68663;49.122;17.544;2023-11-19T02:33:35;99659.66;;;23.51;45.69
79230;BME280;68663;49.122;17.544;2023-11-19T02:36:01;99654.00;;;23.51;45.40
79230;BME280;68663;49.122;17.544;2023-11-19T02:38:29;99649.16;;;23.55;45.36
79230;BME280;68663;49.122;17.544;2023-11-19T02:40:56;99651.91;;;23.62;44.94
79230;BME280;68663;49.122;17.544;2023-11-19T02:43:21;99641.75;;;23.68;45.27
79230;BME280;68663;49.122;17.544;2023-11-19T02:45:47;99623.97;;;23.71;45.17
79230;BME280;68663;49.122;17.544;2023-11-19T02:48:12;99621.47;;;23.77;45.13
79230;BME280;68663;49.122;17.544;2023-11-19T02:50:39;99614.69;;;23.71;44.94
79230;BME280;68663;49.122;17.544;2023-11-19T02:53:06;99605.09;;;23.65;45.13
79230;BME280;68663;49.122;17.544;2023-11-19T02:55:31;99599.06;;;23.63;45.26
79230;BME280;68663;49.122;17.544;2023-11-19T02:58:03;99602.72;;;23.60;45.45
79230;BME280;68663;49.122;17.544;2023-11-19T03:04:02;99612.38;;;23.62;45.03
79230;BME280;68663;49.122;17.544;2023-11-19T03:06:29;99609.47;;;23.69;45.08
79230;BME280;68663;49.122;17.544;2023-11-19T03:08:55;99603.78;;;23.73;45.07
79230;BME280;68663;49.122;17.544;2023-11-19T03:11:20;99604.22;;;23.71;45.30
79230;BME280;68663;49.122;17.544;2023-11-19T03:13:46;99601.84;;;23.66;45.26
79230;BME280;68663;49.122;17.544;2023-11-19T03:16:12;99613.56;;;23.65;45.31
79230;BME280;68663;49.122;17.544;2023-11-19T03:18:38;99613.97;;;23.63;45.24
79230;BME280;68663;49.122;17.544;2023-11-19T03:21:06;99614.44;;;23.58;45.61
79230;BME280;68663;49.122;17.544;2023-11-19T03:23:31;99597.09;;;23.60;45.37
79230;BME280;68663;49.122;17.544;2023-11-19T03:25:57;99594.22;;;23.63;45.48
79230;BME280;68663;49.122;17.544;2023-11-19T03:28:22;99578.84;;;23.68;45.15
79230;BME280;68663;49.122;17.544;2023-11-19T03:30:47;99585.25;;;23.72;45.04
79230;BME280;68663;49.122;17.544;2023-11-19T03:33:13;99580.34;;;23.76;44.91
79230;BME280;68663;49.122;17.544;2023-11-19T03:35:38;99578.75;;;23.75;44.94
79230;BME280;68663;49.122;17.544;2023-11-19T03:38:06;99575.59;;;23.69;45.00
79230;BME280;68663;49.122;17.544;2023-11-19T03:40:31;99568.34;;;23.68;45.39
79230;BME280;68663;49.122;17.544;2023-11-19T03:42:57;99561.53;;;23.66;45.21
79230;BME280;68663;49.122;17.544;2023-11-19T03:45:23;99572.88;;;23.62;45.52
79230;BME280;68663;49.122;17.544;2023-11-19T03:47:50;99569.28;;;23.58;45.59
79230;BME280;68663;49.122;17.544;2023-11-19T03:50:15;99554.75;;;23.60;45.34
79230;BME280;68663;49.122;17.544;2023-11-19T03:52:41;99561.16;;;23.64;45.23
79230;BME280;68663;49.122;17.544;2023-11-19T03:55:07;99565.16;;;23.66;45.44
79230;BME280;68663;49.122;17.544;2023-11-19T03:57:34;99569.94;;;23.69;44.97
79230;BME280;68663;49.122;17.544;2023-11-19T03:59:59;99580.41;;;23.72;45.29
79230;BME280;68663;49.122;17.544;2023-11-19T04:02:25;99569.84;;;23.76;44.97
79230;BME280;68663;49.122;17.544;2023-11-19T04:04:53;99572.22;;;23.81;44.94
79230;BME280;68663;49.122;17.544;2023-11-19T04:07:19;99575.47;;;23.80;45.04
79230;BME280;68663;49.122;17.544;2023-11-19T04:09:45;99566.53;;;23.85;45.00
79230;BME280;68663;49.122;17.544;2023-11-19T04:12:11;99571.38;;;23.85;44.92
79230;BME280;68663;49.122;17.544;2023-11-19T04:14:37;99576.16;;;23.88;44.59
79230;BME280;68663;49.122;17.544;2023-11-19T04:17:02;99578.56;;;23.89;44.73
79230;BME280;68663;49.122;17.544;2023-11-19T04:19:28;99577.34;;;23.90;44.83
79230;BME280;68663;49.122;17.544;2023-11-19T04:21:53;99580.16;;;23.90;44.82
79230;BME280;68663;49.122;17.544;2023-11-19T04:24:19;99588.22;;;23.92;44.66
79230;BME280;68663;49.122;17.544;2023-11-19T04:26:45;99581.81;;;23.88;44.81
79230;BME280;68663;49.122;17.544;2023-11-19T04:29:14;99569.00;;;23.79;45.13
79230;BME280;68663;49.122;17.544;2023-11-19T04:31:40;99561.00;;;23.74;45.30
79230;BME280;68663;49.122;17.544;2023-11-19T04:34:06;99565.53;;;23.68;45.19
79230;BME280;68663;49.122;17.544;2023-11-19T04:36:32;99558.75;;;23.62;45.51
79230;BME280;68663;49.122;17.544;2023-11-19T04:39:01;99535.41;;;23.58;45.61
79230;BME280;68663;49.122;17.544;2023-11-19T04:41:28;99542.25;;;23.61;45.56
79230;BME280;68663;49.122;17.544;2023-11-19T04:43:54;99550.66;;;23.64;45.50
79230;BME280;68663;49.122;17.544;2023-11-19T04:46:19;99545.78;;;23.68;45.27
79230;BME280;68663;49.122;17.544;2023-11-19T04:48:45;99546.91;;;23.74;45.15
79230;BME280;68663;49.122;17.544;2023-11-19T04:51:10;99545.69;;;23.75;45.13
79230;BME280;68663;49.122;17.544;2023-11-19T04:53:36;99551.38;;;23.72;45.16
79230;BME280;68663;49.122;17.544;2023-11-19T04:56:07;99549.81;;;23.67;45.17
79230;BME280;68663;49.122;17.544;2023-11-19T04:58:33;99549.00;;;23.67;45.30
79230;BME280;68663;49.122;17.544;2023-11-19T05:00:59;99545.00;;;23.64;45.19
79230;BME280;68663;49.122;17.544;2023-11-19T05:03:24;99537.78;;;23.63;45.56
79230;BME280;68663;49.122;17.544;2023-11-19T05:05:49;99528.09;;;23.64;45.19
79230;BME280;68663;49.122;17.544;2023-11-19T05:08:15;99526.38;;;23.70;45.04
79230;BME280;68663;49.122;17.544;2023-11-19T05:10:41;99523.50;;;23.74;45.07
79230;BME280;68663;49.122;17.544;2023-11-19T05:13:06;99512.28;;;23.70;45.02
79230;BME280;68663;49.122;17.544;2023-11-19T05:15:31;99511.94;;;23.65;45.17
79230;BME280;68663;49.122;17.544;2023-11-19T05:17:58;99505.50;;;23.64;45.27
79230;BME280;68663;49.122;17.544;2023-11-19T05:20:23;99499.47;;;23.62;45.21
79230;BME280;68663;49.122;17.544;2023-11-19T05:22:49;99487.00;;;23.60;45.61
79230;BME280;68663;49.122;17.544;2023-11-19T05:25:16;99484.94;;;23.64;45.52
79230;BME280;68663;49.122;17.544;2023-11-19T05:27:41;99479.66;;;23.66;45.09
79230;BME280;68663;49.122;17.544;2023-11-19T05:30:07;99480.00;;;23.71;45.24
79230;BME280;68663;49.122;17.544;2023-11-19T05:32:33;99489.25;;;23.72;45.35
79230;BME280;68663;49.122;17.544;2023-11-19T05:34:59;99505.88;;;23.66;45.21
79230;BME280;68663;49.122;17.544;2023-11-19T05:37:24;99507.09;;;23.65;45.33
79230;BME280;68663;49.122;17.544;2023-11-19T05:39:50;99516.00;;;23.64;45.46
79230;BME280;68663;49.122;17.544;2023-11-19T05:42:16;99511.63;;;23.59;45.50
79230;BME280;68663;49.122;17.544;2023-11-19T05:44:42;99520.47;;;23.61;45.28
79230;BME280;68663;49.122;17.544;2023-11-19T05:47:07;99515.19;;;23.63;45.39
79230;BME280;68663;49.122;17.544;2023-11-19T05:49:33;99517.59;;;23.65;45.47
79230;BME280;68663;49.122;17.544;2023-11-19T05:51:58;99515.47;;;23.72;45.29
79230;BME280;68663;49.122;17.544;2023-11-19T05:54:24;99522.28;;;23.75;45.07
79230;BME280;68663;49.122;17.544;2023-11-19T05:56:49;99515.78;;;23.78;45.09
79230;BME280;68663;49.122;17.544;2023-11-19T05:59:15;99525.44;;;23.80;45.14
79230;BME280;68663;49.122;17.544;2023-11-19T06:01:43;99519.38;;;23.82;45.13
79230;BME280;68663;49.122;17.544;2023-11-19T06:04:09;99506.84;;;23.83;45.04
79230;BME280;68663;49.122;17.544;2023-11-19T06:06:35;99506.44;;;23.85;45.04
79230;BME280;68663;49.122;17.544;2023-11-19T06:09:01;99501.16;;;23.87;44.83
79230;BME280;68663;49.122;17.544;2023-11-19T06:11:27;99495.50;;;23.87;44.95
79230;BME280;68663;49.122;17.544;2023-11-19T06:13:52;99491.47;;;23.88;45.10
79230;BME280;68663;49.122;17.544;2023-11-19T06:16:18;99482.56;;;23.89;44.85
79230;BME280;68663;49.122;17.544;2023-11-19T06:18:44;99457.53;;;23.91;44.57
79230;BME280;68663;49.122;17.544;2023-11-19T06:21:10;99430.44;;;23.94;44.84
79230;BME280;68663;49.122;17.544;2023-11-19T06:23:36;99428.44;;;23.94;44.91
79230;BME280;68663;49.122;17.544;2023-11-19T06:26:01;99461.47;;;23.97;44.75
79230;BME280;68663;49.122;17.544;2023-11-19T06:28:26;99479.19;;;23.98;45.00
79230;BME280;68663;49.122;17.544;2023-11-19T06:30:52;99462.69;;;23.96;45.22
79230;BME280;68663;49.122;17.544;2023-11-19T06:33:18;99454.22;;;23.96;45.48
79230;BME280;68663;49.122;17.544;2023-11-19T06:35:43;99455.00;;;23.97;45.65
79230;BME280;68663;49.122;17.544;2023-11-19T06:38:09;99446.91;;;23.99;45.82
79230;BME280;68663;49.122;17.544;2023-11-19T06:40:34;99445.31;;;23.98;45.83
79230;BME280;68663;49.122;17.544;2023-11-19T06:43:03;99440.84;;;24.00;45.79
79230;BME280;68663;49.122;17.544;2023-11-19T06:45:29;99452.94;;;24.01;45.96
79230;BME280;68663;49.122;17.544;2023-11-19T06:47:55;99441.63;;;24.01;45.67
79230;BME280;68663;49.122;17.544;2023-11-19T06:50:20;99446.91;;;23.99;46.11
79230;BME280;68663;49.122;17.544;2023-11-19T06:52:46;99449.31;;;24.00;45.90
79230;BME280;68663;49.122;17.544;2023-11-19T06:55:12;99442.00;;;24.03;45.56
79230;BME280;68663;49.122;17.544;2023-11-19T06:57:38;99451.81;;;23.95;45.91
79230;BME280;68663;49.122;17.544;2023-11-19T07:00:05;99440.63;;;23.88;45.98
79230;BME280;68663;49.122;17.544;2023-11-19T07:02:31;99423.81;;;23.80;45.87
79230;BME280;68663;49.122;17.544;2023-11-19T07:04:56;99415.00;;;23.75;46.13
79230;BME280;68663;49.122;17.544;2023-11-19T07:07:22;99405.38;;;23.72;46.24
79230;BME280;68663;49.122;17.544;2023-11-19T07:09:47;99403.03;;;23.67;46.83
79230;BME280;68663;49.122;17.544;2023-11-19T07:12:13;99384.56;;;23.63;48.04
79230;BME280;68663;49.122;17.544;2023-11-19T07:14:39;99398.25;;;23.64;48.11
79230;BME280;68663;49.122;17.544;2023-11-19T07:17:05;99396.16;;;23.68;48.30
79230;BME280;68663;49.122;17.544;2023-11-19T07:19:31;99377.16;;;23.72;48.17
79230;BME280;68663;49.122;17.544;2023-11-19T07:21:57;99368.19;;;23.77;48.01
79230;BME280;68663;49.122;17.544;2023-11-19T07:24:22;99367.44;;;23.73;47.94
79230;BME280;68663;49.122;17.544;2023-11-19T07:26:48;99360.69;;;23.67;47.98
79230;BME280;68663;49.122;17.544;2023-11-19T07:29:14;99354.63;;;23.69;48.45
79230;BME280;68663;49.122;17.544;2023-11-19T07:31:42;99354.69;;;23.65;48.25
79230;BME280;68663;49.122;17.544;2023-11-19T07:34:09;99350.69;;;23.63;47.87
79230;BME280;68663;49.122;17.544;2023-11-19T07:36:35;99344.97;;;23.66;48.66
79230;BME280;68663;49.122;17.544;2023-11-19T07:39:01;99365.84;;;23.72;48.84
79230;BME280;68663;49.122;17.544;2023-11-19T07:41:27;99388.81;;;23.74;48.41
79230;BME280;68663;49.122;17.544;2023-11-19T07:43:52;99399.34;;;23.70;48.39
79230;BME280;68663;49.122;17.544;2023-11-19T07:46:18;99393.34;;;23.68;48.52
79230;BME280;68663;49.122;17.544;2023-11-19T07:48:46;99400.22;;;23.67;48.40
79230;BME280;68663;49.122;17.544;2023-11-19T07:51:13;99396.66;;;23.63;48.41
79230;BME280;68663;49.122;17.544;2023-11-19T07:53:39;99401.50;;;23.63;48.35
79230;BME280;68663;49.122;17.544;2023-11-19T07:56:06;99408.31;;;23.65;48.35
79230;BME280;68663;49.122;17.544;2023-11-19T07:58:31;99414.31;;;23.67;48.27
79230;BME280;68663;49.122;17.544;2023-11-19T08:00:57;99409.44;;;23.71;48.11
79230;BME280;68663;49.122;17.544;2023-11-19T08:03:22;99389.19;;;23.76;49.58
79230;BME280;68663;49.122;17.544;2023-11-19T08:05:48;99389.56;;;23.78;49.36
79230;BME280;68663;49.122;17.544;2023-11-19T08:08:13;99371.38;;;23.79;49.48
79230;BME280;68663;49.122;17.544;2023-11-19T08:10:40;99342.78;;;23.77;49.40
79230;BME280;68663;49.122;17.544;2023-11-19T08:13:06;99322.28;;;23.73;49.76
79230;BME280;68663;49.122;17.544;2023-11-19T08:15:31;99333.56;;;23.73;50.20
79230;BME280;68663;49.122;17.544;2023-11-19T08:17:57;99347.31;;;23.71;50.00
79230;BME280;68663;49.122;17.544;2023-11-19T08:20:22;99352.59;;;23.69;49.66
79230;BME280;68663;49.122;17.544;2023-11-19T08:22:48;99343.31;;;23.69;49.42
79230;BME280;68663;49.122;17.544;2023-11-19T08:25:14;99351.38;;;23.70;48.75
79230;BME280;68663;49.122;17.544;2023-11-19T08:27:39;99348.13;;;23.72;47.58
79230;BME280;68663;49.122;17.544;2023-11-19T08:30:05;99357.69;;;23.78;47.56
79230;BME280;68663;49.122;17.544;2023-11-19T08:32:34;99370.91;;;23.85;47.63
79230;BME280;68663;49.122;17.544;2023-11-19T08:34:59;99363.97;;;23.89;47.37
79230;BME280;68663;49.122;17.544;2023-11-19T08:37:25;99357.88;;;23.91;47.35
79230;BME280;68663;49.122;17.544;2023-11-19T08:39:50;99369.13;;;23.94;47.20
79230;BME280;68663;49.122;17.544;2023-11-19T08:42:16;99363.03;;;23.96;47.24
79230;BME280;68663;49.122;17.544;2023-11-19T08:44:42;99350.88;;;23.99;47.32
79230;BME280;68663;49.122;17.544;2023-11-19T08:47:12;99337.13;;;24.01;47.20
79230;BME280;68663;49.122;17.544;2023-11-19T08:49:39;99339.97;;;24.01;46.92
79230;BME280;68663;49.122;17.544;2023-11-19T08:52:05;99335.09;;;24.01;46.22
79230;BME280;68663;49.122;17.544;2023-11-19T08:54:32;99322.59;;;24.02;46.01
79230;BME280;68663;49.122;17.544;2023-11-19T08:56:58;99324.69;;;23.98;46.38
79230;BME280;68663;49.122;17.544;2023-11-19T08:59:24;99324.25;;;24.00;46.62
79230;BME280;68663;49.122;17.544;2023-11-19T09:01:50;99310.84;;;24.04;46.48
79230;BME280;68663;49.122;17.544;2023-11-19T09:04:15;99314.06;;;24.06;46.66
79230;BME280;68663;49.122;17.544;2023-11-19T09:06:41;99315.28;;;24.05;46.95
79230;BME280;68663;49.122;17.544;2023-11-19T09:09:08;99299.69;;;23.97;46.90
79230;BME280;68663;49.122;17.544;2023-11-19T09:11:33;99301.78;;;23.93;46.93
79230;BME280;68663;49.122;17.544;2023-11-19T09:13:58;99292.22;;;23.87;47.11
79230;BME280;68663;49.122;17.544;2023-11-19T09:16:24;99279.38;;;23.82;47.30
79230;BME280;68663;49.122;17.544;2023-11-19T09:18:50;99277.84;;;23.77;47.59
79230;BME280;68663;49.122;17.544;2023-11-19T09:21:16;99287.19;;;23.74;47.83
79230;BME280;68663;49.122;17.544;2023-11-19T09:23:41;99291.66;;;23.72;48.10
79230;BME280;68663;49.122;17.544;2023-11-19T09:26:08;99297.25;;;23.75;48.08
79230;BME280;68663;49.122;17.544;2023-11-19T09:28:35;99286.31;;;23.77;48.23
79230;BME280;68663;49.122;17.544;2023-11-19T09:31:01;99275.41;;;23.79;48.29
79230;BME280;68663;49.122;17.544;2023-11-19T09:33:29;99272.94;;;23.81;47.96
79230;BME280;68663;49.122;17.544;2023-11-19T09:35:55;99271.72;;;23.82;47.83
79230;BME280;68663;49.122;17.544;2023-11-19T09:38:20;99268.03;;;23.86;48.00
79230;BME280;68663;49.122;17.544;2023-11-19T09:40:46;99269.63;;;23.87;47.75
79230;BME280;68663;49.122;17.544;2023-11-19T09:43:12;99270.34;;;23.91;47.59
79230;BME280;68663;49.122;17.544;2023-11-19T09:45:49;99270.72;;;23.93;47.88
79230;BME280;68663;49.122;17.544;2023-11-19T09:48:19;99261.38;;;23.96;48.46
79230;BME280;68663;49.122;17.544;2023-11-19T09:50:46;99252.53;;;23.94;48.69
79230;BME280;68663;49.122;17.544;2023-11-19T09:53:12;99243.66;;;23.95;49.44
79230;BME280;68663;49.122;17.544;2023-11-19T09:55:38;99239.53;;;24.00;49.65
79230;BME280;68663;49.122;17.544;2023-11-19T09:58:05;99228.94;;;24.04;49.76
79230;BME280;68663;49.122;17.544;2023-11-19T10:00:32;99226.50;;;24.06;50.09
79230;BME280;68663;49.122;17.544;2023-11-19T10:02:58;99232.22;;;24.02;49.65
79230;BME280;68663;49.122;17.544;2023-11-19T10:05:25;99228.28;;;23.96;49.97
79230;BME280;68663;49.122;17.544;2023-11-19T10:07:51;99232.41;;;23.92;49.86
79230;BME280;68663;49.122;17.544;2023-11-19T10:10:17;99231.69;;;23.88;50.08
79230;BME280;68663;49.122;17.544;2023-11-19T10:12:45;99223.66;;;23.86;51.21
79230;BME280;68663;49.122;17.544;2023-11-19T10:15:20;99221.50;;;23.94;53.06
79230;BME280;68663;49.122;17.544;2023-11-19T10:17:47;99214.53;;;23.98;54.99
79230;BME280;68663;49.122;17.544;2023-11-19T10:20:12;99212.06;;;24.00;54.64
79230;BME280;68663;49.122;17.544;2023-11-19T10:22:37;99171.81;;;23.96;53.73
79230;BME280;68663;49.122;17.544;2023-11-19T10:25:04;99183.13;;;23.96;56.10
79230;BME280;68663;49.122;17.544;2023-11-19T10:27:29;99176.16;;;24.01;57.00
79230;BME280;68663;49.122;17.544;2023-11-19T10:29:59;99177.31;;;24.03;57.87
79230;BME280;68663;49.122;17.544;2023-11-19T10:32:25;99177.03;;;23.98;53.12
79230;BME280;68663;49.122;17.544;2023-11-19T10:34:50;99184.25;;;23.79;41.91
79230;BME280;68663;49.122;17.544;2023-11-19T10:37:33;99173.16;;;23.68;37.76
79230;BME280;68663;49.122;17.544;2023-11-19T10:40:02;99177.84;;;23.55;36.82
79230;BME280;68663;49.122;17.544;2023-11-19T10:42:30;99174.75;;;23.46;36.63
79230;BME280;68663;49.122;17.544;2023-11-19T10:44:56;99164.06;;;23.34;33.05
79230;BME280;68663;49.122;17.544;2023-11-19T10:47:22;99163.94;;;23.17;32.12
79230;BME280;68663;49.122;17.544;2023-11-19T10:49:48;99158.84;;;23.09;33.70
79230;BME280;68663;49.122;17.544;2023-11-19T10:52:18;99153.09;;;23.16;39.60
79230;BME280;68663;49.122;17.544;2023-11-19T10:54:49;99148.94;;;23.24;46.60
79230;BME280;68663;49.122;17.544;2023-11-19T10:57:20;99149.66;;;23.28;44.90
79230;BME280;68663;49.122;17.544;2023-11-19T10:59:46;99146.16;;;23.20;40.82
79230;BME280;68663;49.122;17.544;2023-11-19T11:02:16;99145.00;;;23.18;39.52
79230;BME280;68663;49.122;17.544;2023-11-19T11:04:46;99145.81;;;23.18;39.55
79230;BME280;68663;49.122;17.544;2023-11-19T11:07:14;99142.59;;;23.16;39.97
79230;BME280;68663;49.122;17.544;2023-11-19T11:09:41;99132.19;;;23.13;40.42
79230;BME280;68663;49.122;17.544;2023-11-19T11:12:09;99118.50;;;23.12;40.61
79230;BME280;68663;49.122;17.544;2023-11-19T11:14:37;99112.81;;;23.15;41.00
79230;BME280;68663;49.122;17.544;2023-11-19T11:17:03;99115.94;;;23.21;41.69
79230;BME280;68663;49.122;17.544;2023-11-19T11:19:33;99113.00;;;23.28;41.99
79230;BME280;68663;49.122;17.544;2023-11-19T11:22:00;99113.66;;;23.36;42.66
79230;BME280;68663;49.122;17.544;2023-11-19T11:32:47;99096.25;;;23.41;45.09
79230;BME280;68663;49.122;17.544;2023-11-19T11:35:24;99078.09;;;23.42;48.33
79230;BME280;68663;49.122;17.544;2023-11-19T11:38:00;99075.66;;;23.44;47.53
79230;BME280;68663;49.122;17.544;2023-11-19T11:40:27;99073.56;;;23.48;47.39
79230;BME280;68663;49.122;17.544;2023-11-19T11:42:52;99080.78;;;23.49;47.55
79230;BME280;68663;49.122;17.544;2023-11-19T11:45:18;99065.94;;;23.45;48.23
79230;BME280;68663;49.122;17.544;2023-11-19T11:50:20;99074.41;;;23.45;46.52
79230;BME280;68663;49.122;17.544;2023-11-19T11:57:49;99083.59;;;23.49;46.11
79230;BME280;68663;49.122;17.544;2023-11-19T12:00:22;99086.69;;;23.58;46.45
79230;BME280;68663;49.122;17.544;2023-11-19T12:02:48;99080.72;;;23.52;46.47
79230;BME280;68663;49.122;17.544;2023-11-19T12:05:14;99069.88;;;23.51;47.19
79230;BME280;68663;49.122;17.544;2023-11-19T12:07:40;99078.31;;;23.51;47.11
79230;BME280;68663;49.122;17.544;2023-11-19T12:10:09;99086.44;;;23.49;47.17
79230;BME280;68663;49.122;17.544;2023-11-19T12:12:37;99084.84;;;23.48;47.36
79230;BME280;68663;49.122;17.544;2023-11-19T12:15:07;99096.50;;;23.50;46.96
79230;BME280;68663;49.122;17.544;2023-11-19T12:17:43;99106.81;;;23.60;47.31
79230;BME280;68663;49.122;17.544;2023-11-19T12:20:14;99114.41;;;23.63;47.06
79230;BME280;68663;49.122;17.544;2023-11-19T12:22:43;99113.59;;;23.63;47.43
79230;BME280;68663;49.122;17.544;2023-11-19T12:25:10;99104.41;;;23.59;47.51
79230;BME280;68663;49.122;17.544;2023-11-19T12:27:39;99107.22;;;23.59;47.63
79230;BME280;68663;49.122;17.544;2023-11-19T12:30:05;99097.19;;;23.58;47.90
79230;BME280;68663;49.122;17.544;2023-11-19T12:32:46;99075.75;;;23.60;47.71
79230;BME280;68663;49.122;17.544;2023-11-19T12:35:12;99084.94;;;23.64;47.58
79230;BME280;68663;49.122;17.544;2023-11-19T12:37:48;99080.03;;;23.68;47.68
79230;BME280;68663;49.122;17.544;2023-11-19T12:40:18;99069.91;;;23.71;47.48
79230;BME280;68663;49.122;17.544;2023-11-19T12:42:48;99066.56;;;23.76;47.45
79230;BME280;68663;49.122;17.544;2023-11-19T12:45:14;99064.91;;;23.78;47.12
79230;BME280;68663;49.122;17.544;2023-11-19T12:47:41;99067.66;;;23.82;47.30
79230;BME280;68663;49.122;17.544;2023-11-19T12:50:07;99067.22;;;23.83;47.21
79230;BME280;68663;49.122;17.544;2023-11-19T12:52:37;99064.31;;;23.87;47.39
79230;BME280;68663;49.122;17.544;2023-11-19T12:55:24;99068.38;;;23.86;47.27
79230;BME280;68663;49.122;17.544;2023-11-19T12:57:50;99076.75;;;23.90;47.26
79230;BME280;68663;49.122;17.544;2023-11-19T13:00:21;99065.63;;;23.82;47.42
79230;BME280;68663;49.122;17.544;2023-11-19T13:02:53;99074.59;;;23.77;47.62
79230;BME280;68663;49.122;17.544;2023-11-19T13:05:29;99071.34;;;23.79;47.45
79230;BME280;68663;49.122;17.544;2023-11-19T13:08:08;99069.75;;;23.78;47.76